Track Пименов Вячеслав

Time Latitude Longitude Accuracy (66% radius in meters) Altitude (meters) Speed (km/hour) Bearing (degrees) Battery (%) GPS flag
11:10:33 56.387492 43.737127 5 79.7 0 183.2200012207 68 1 delete
11:10:21 56.387497 43.737130 4.5 79.7 0 183.2200012207 68 1 delete
11:10:13 56.387590 43.737025 3.7000000476837 79.7 0 183.2200012207 68 1 delete
11:10:09 56.387630 43.737043 3.2000000476837 80.5 0 183.2200012207 68 1 delete
11:09:59 56.387687 43.737038 3.7999999523163 79 0 177.94000244141 68 1 delete
11:09:53 56.387702 43.737092 4.5999999046326 78 4.4564647674561 303.10998535156 68 1 delete
11:09:47 56.387665 43.737305 4.9000000953674 76.2 1.3928383588791 93.059997558594 68 1 delete
11:09:43 56.387653 43.737340 4.9000000953674 73.8 2.8175895214081 333.60998535156 68 1 delete
11:09:37 56.387578 43.737387 4.8000001907349 72.7 0 65.980003356934 68 1 delete
11:09:34 56.387563 43.737403 5.1999998092651 73.3 0 65.980003356934 68 1 delete
11:09:30 56.387498 43.737548 5.6999998092651 71.2 0 65.980003356934 68 1 delete
11:09:25 56.387473 43.737680 5.5999999046326 71 0 65.980003356934 68 1 delete
11:09:16 56.387408 43.737697 5.5999999046326 71.5 1.0989319086075 61.880001068115 68 1 delete
11:09:14 56.387390 43.737673 5.5999999046326 71.6 1.2260683774948 90.190002441406 68 1 delete
11:09:07 56.387357 43.737557 6.1999998092651 73.8 1.1787139177322 128.92999267578 68 1 delete
11:09:05 56.387342 43.737437 6.5 74.9 1.5307838916779 56.590000152588 68 1 delete
11:09:03 56.387317 43.737330 6.5 74.7 3.5927610397339 180.66000366211 68 1 delete
11:08:59 56.387387 43.737213 6.5999999046326 74 3.6617338657379 188.08999633789 68 1 delete
11:08:54 56.387515 43.737135 6.1999998092651 74.5 1.2487161159515 265.41000366211 68 1 delete
11:08:47 56.387515 43.737260 5.0999999046326 75.8 0 327.88000488281 68 1 delete
11:08:43 56.387552 43.737208 5.0999999046326 76.8 0 327.88000488281 68 1 delete
11:08:31 56.387545 43.737098 5.1999998092651 79.1 0 249.21000671387 68 1 delete
11:08:29 56.387567 43.737075 5.4000000953674 79.5 2.3795609474182 281.54998779297 68 1 delete
11:08:21 56.387647 43.737222 5.3000001907349 78.1 0 9.0100002288818 68 1 delete
11:08:09 56.387643 43.737175 5.3000001907349 78.9 2.1041843891144 323.7799987793 68 1 delete
11:08:05 56.387602 43.737267 5 79.4 0 124.9700012207 68 1 delete
11:07:59 56.387472 43.737318 5.0999999046326 78.9 0 124.9700012207 68 1 delete
11:07:55 56.387465 43.737340 4.9000000953674 77.8 0 124.9700012207 68 1 delete
11:07:49 56.387537 43.737247 4.5999999046326 77.9 0 124.9700012207 68 1 delete
11:07:37 56.387530 43.737245 5.0999999046326 83.9 2.9159014225006 166.94000244141 68 1 delete
11:07:35 56.387590 43.737307 5.0999999046326 84.7 2.5859644412994 150.61999511719 68 1 delete
11:07:27 56.387747 43.737237 5.4000000953674 85.5 1.0515774488449 16.409999847412 68 1 delete
11:07:24 56.387718 43.737292 5.5999999046326 86.3 2.8742089271545 18.079999923706 68 1 delete
11:07:15 56.387687 43.737493 5.5999999046326 85.9 2.1618332862854 74.959999084473 68 1 delete
11:07:13 56.387685 43.737465 5.0999999046326 85.8 2.7172186374664 88.529998779297 68 1 delete
11:07:08 56.387707 43.737290 4.4000000953674 84.5 4.8811106681824 76.51000213623 68 1 delete
11:07:05 56.387667 43.737035 4.3000001907349 84.2 0 225.08999633789 68 1 delete
11:06:55 56.387697 43.736980 4.5999999046326 86.2 0 50.619998931885 68 1 delete
11:06:43 56.387725 43.737030 4.5 85 0 80.470001220703 68 1 delete
11:06:40 56.387722 43.737010 4.5 85.5 1.1673899888992 63.830001831055 68 1 delete
11:06:33 56.387645 43.736988 4.6999998092651 85 1.1956996917725 334.16000366211 68 1 delete
11:06:24 56.387645 43.736922 4.3000001907349 86.4 3.5469508171082 213.7200012207 68 1 delete
11:06:22 56.387762 43.736982 4.1999998092651 87.2 0 285.26998901367 68 1 delete
11:06:10 56.387723 43.737105 4 88.6 0 279.73001098633 68 1 delete
11:06:09 56.387725 43.737100 4 88.6 0 279.73001098633 68 1 delete
11:06:01 56.387662 43.737030 3.7999999523163 90.7 0 0.21999999880791 68 1 delete
11:05:49 56.387678 43.737077 3.9000000953674 89.7 0 247.77000427246 68 1 delete
11:05:39 56.387672 43.737102 3.9000000953674 89.5 0 239.25 68 1 delete
11:05:27 56.387638 43.736967 3.7999999523163 91.1 0 239.25 68 1 delete
11:05:17 56.387683 43.737070 3.2000000476837 91.4 0 1.8999999761581 70 1 delete